METAR Data
IDs: Format: Raw Decoded Include TAF

Data at: 0455 UTC 26 Sep 2018

KVAY 260452Z AUTO 00000KT 5SM BR SCT017 SCT023 OVC033 22/22 A3010 RMK AO2
KVAY 260442Z AUTO 14003KT 4SM BR SCT017 BKN023 OVC041 22/22 A3010 RMK AO2 T02220222
KVAY 260419Z AUTO 00000KT 4SM BR FEW008 BKN042 22/22 A3011 RMK AO2 T02170217
KVAY 260416Z AUTO 12003KT 1 1/4SM BR SCT008 BKN043 22/22 A3011 RMK AO2 T02170217
KVAY 260414Z AUTO 12003KT 3/4SM BR SCT008 BKN043 22/22 A3011 RMK AO2 T02170217
KVAY 260403Z AUTO 00000KT 1/2SM FG VV009 22/22 A3011 RMK AO2 T02170217
KVAY 260356Z AUTO 00000KT 1SM BR FEW007 SCT013 22/22 A3011 RMK AO2 T02170217
KVAY 260354Z AUTO 00000KT 2SM BR FEW007 FEW015 22/22 A3011 RMK AO2 SLP196 T02170217
KVAY 260338Z AUTO 00000KT 4SM BR FEW006 SCT019 22/22 A3011 RMK AO2 T02220222
KVAY 260254Z AUTO 00000KT 7SM CLR 23/23 A3012 RMK AO2 SLP197 T02280228 58010
KVAY 260154Z AUTO 00000KT 5SM BR FEW005 OVC031 22/22 A3012 RMK AO2 SLP200 T02220222
KVAY 260144Z AUTO 15003KT 5SM BR FEW005 OVC031 22/22 A3012 RMK AO2 T02220222
KVAY 260054Z AUTO 00000KT 9SM FEW011 FEW020 OVC038 22/22 A3014 RMK AO2 SLP207 T02220222
KVAY 252354Z AUTO 11003KT 7SM FEW040 SCT055 SCT100 22/22 A3015 RMK AO2 SLP208 60079 T02220222 10272 20222 58002
KVAY 252312Z AUTO 00000KT 9SM FEW018 BKN030 OVC047 23/23 A3015 RMK AO2 LTG DSNT E T02280228
KVAY 252254Z AUTO 00000KT 10SM FEW007 BKN028 OVC042 23/23 A3015 RMK AO2 RAE42 TSB21E36 SLP209 P0069 T02280228
KVAY 252239Z AUTO 26006KT 4SM VCTS -RA BR FEW007 SCT014 OVC023 23/23 A3015 RMK AO2 LTG DSNT NE AND SE TSB21E36 P0069 T02280228
KVAY 252236Z AUTO VRB05KT 1 1/4SM -RA BR FEW007 BKN014 OVC031 23/23 A3015 RMK AO2 LTG DSNT NE AND SE TSB21E36 P0069 T02280228
KVAY 252221Z AUTO 33008KT 1/4SM +TSRA FG FEW005 BKN014 OVC024 22/22 A3014 RMK AO2 TSB21 P0055 T02220222
KVAY 252214Z AUTO 02004KT 1/4SM +RA FG SCT008 BKN016 OVC026 22/22 A3015 RMK AO2 P0033 T02220222
KVAY 252211Z AUTO 00000KT 1/4SM +RA FG BKN008 BKN020 OVC026 23/23 A3016 RMK AO2 P0028 T02280228
KVAY 252204Z AUTO 33007KT 1SM VCTS +RA BR FEW006 BKN026 23/23 A3015 RMK AO2 LTG DSNT S P0008 T02280228
KVAY 252157Z AUTO 32006KT 3/4SM VCTS +RA BR FEW004 BKN028 OVC100 23/23 A3015 RMK AO2 LTG DSNT S P0001 T02280228
KVAY 252154Z AUTO 33005KT 1SM VCTS +RA BR BKN028 BKN075 OVC100 24/23 A3015 RMK AO2 LTG DSNT S RAE17B42 SLP208 P0008 T02390233
KVAY 252152Z AUTO 31004KT 1SM VCTS +RA BR BKN028 BKN075 BKN100 24/24 A3015 RMK AO2 RAE17B42 P0007
KVAY 252149Z AUTO 00000KT 1 3/4SM -RA BR SCT028 BKN045 BKN080 24/24 A3015 RMK AO2 RAE17B42 P0005
KVAY 252130Z AUTO 14003KT 10SM VCTS FEW027 BKN100 24/23 A3013 RMK AO2 RAE17 P0000 T02440233
KVAY 252054Z AUTO 00000KT 8SM -RA SCT070 BKN100 OVC120 25/23 A3014 RMK AO2 RAB31 SLP205 P0001 60002 T02500233 56019
KVAY 251954Z AUTO 16006KT 10SM FEW030 SCT070 BKN110 27/23 A3014 RMK AO2 RAB1859E13B37E46 SLP207 P0001 T02670228
KVAY 251854Z AUTO VRB05KT 10SM FEW029 BKN060 OVC110 27/23 A3017 RMK AO2 SLP217 T02670228
KVAY 251754Z AUTO 18006KT 10SM FEW026 SCT035 BKN110 26/23 A3019 RMK AO2 SLP224 60010 T02610228 10267 20183 58019
KVAY 251735Z AUTO 17008KT 130V220 10SM SCT021 BKN030 BKN038 27/23 A3020 RMK AO2 T02670233
KVAY 251654Z AUTO 16007KT 120V200 10SM FEW017 BKN022 OVC040 26/23 A3022 RMK AO2 SLP231 T02560233
KVAY 251616Z AUTO 16007KT 10SM SCT015 BKN025 OVC080 24/23 A3023 RMK AO2 T02440228
KVAY 251604Z AUTO VRB06KT 10SM FEW015 BKN050 OVC110 24/23 A3023 RMK AO2 T02440228
KVAY 251554Z AUTO VRB05KT 10SM FEW015 BKN027 OVC100 24/23 A3024 RMK AO2 SLP238 T02440228
KVAY 251542Z AUTO 15008KT 130V190 10SM SCT020 BKN044 OVC100 24/23 A3024 RMK AO2 T02390228
KVAY 251533Z AUTO 15003KT 10SM FEW014 BKN025 OVC110 24/23 A3024 RMK AO2 T02390228
KVAY 251523Z AUTO VRB05KT 10SM SCT014 BKN034 OVC044 24/23 A3025 RMK AO2 T02390228
KVAY 251454Z AUTO VRB04G16KT 9SM OVC012 23/22 A3025 RMK AO2 RAB20E30 SLP243 P0000 60010 T02330222 58015
KVAY 251354Z AUTO VRB04KT 7SM OVC011 22/22 A3027 RMK AO2 RAE46 SLP251 P0007 T02170217
KVAY 251320Z AUTO VRB04KT 3SM -RA BR FEW008 BKN014 OVC022 21/21 A3027 RMK AO2 P0004 T02060206
KVAY 251312Z AUTO VRB04KT 2 1/2SM -RA BR SCT010 BKN015 OVC022 20/20 A3028 RMK AO2 P0003 T02000200
KVAY 251254Z AUTO 00000KT 4SM -RA BR OVC010 19/19 A3028 RMK AO2 CIG 006V014 SLP253 P0003 T01940194
KVAY 251243Z AUTO 36003KT 5SM -RA BR OVC010 19/19 A3028 RMK AO2 CIG 006V014 P0002 T01940194
KVAY 251218Z AUTO 00000KT 8SM -RA OVC006 19/19 A3029 RMK AO2 P0001 T01890189
KVAY 251154Z AUTO 00000KT 6SM -RA BR OVC004 18/18 A3029 RMK AO2 SLP258 P0004 60023 70023 T01830183 10183 20167 56008
KVAY 251133Z AUTO 00000KT 5SM -RA BR OVC004 18/18 A3030 RMK AO2 P0004 T01830183
KVAY 251121Z AUTO 00000KT 3SM RA BR OVC005 18/18 A3030 RMK AO2 P0003 T01830183
KVAY 251054Z AUTO 05003KT 4SM -RA BR BKN006 OVC009 18/18 A3030 RMK AO2 SLP260 P0009 T01830183
KVAY 251046Z AUTO 05003KT 4SM -RA BR OVC006 18/18 A3030 RMK AO2 P0009 T01830183
KVAY 251037Z AUTO 00000KT 5SM -RA BR BKN005 OVC011 18/18 A3030 RMK AO2 P0008 T01830183
KVAY 251027Z AUTO 05003KT 5SM -RA BR FEW005 OVC011 18/18 A3030 RMK AO2 P0007 T01780178
KVAY 251020Z AUTO 07003KT 3SM -RA BR BKN005 OVC011 18/18 A3030 RMK AO2 P0007 T01780178
KVAY 251013Z AUTO VRB04KT 1 3/4SM +RA BR BKN005 OVC011 18/18 A3030 RMK AO2 P0006 T01780178
KVAY 250954Z AUTO VRB03KT 3SM -RA BR OVC005 18/18 A3031 RMK AO2 CIG 004V010 SLP262 P0007 T01780178
KVAY 250946Z AUTO 00000KT 3SM -RA BR OVC005 18/18 A3031 RMK AO2 CIG 004V008 P0006 T01780178
KVAY 250934Z AUTO VRB03KT 2 1/2SM RA BR OVC005 18/18 A3031 RMK AO2 P0005 T01780178
KVAY 250927Z AUTO 08004KT 4SM -RA BR OVC006 18/18 A3031 RMK AO2 P0004 T01780178
KVAY 250918Z AUTO VRB04KT 2 1/2SM -RA BR OVC006 18/18 A3031 RMK AO2 P0003 T01780178
KVAY 250854Z AUTO VRB03KT 5SM -RA BR OVC006 18/18 A3032 RMK AO2 RAE17B39 SLP266 P0001 60003 T01780178 56024
KVAY 250754Z AUTO VRB04KT 4SM -RA BR OVC006 17/17 A3033 RMK AO2 SLP271 P0001 T01720172
KVAY 250654Z AUTO 08006KT 5SM -RA BR OVC006 17/17 A3036 RMK AO2 RAB29 SLP280 P0001 T01670167
KVAY 250554Z AUTO 07004KT 3SM BR OVC008 17/17 A3039 RMK AO2 CIG 005V011 SLP290 60000 T01670167 10178 20167 56009
KVAY 250549Z AUTO VRB05KT 3SM BR OVC008 17/17 A3039 RMK AO2 CIG 006V011
KVAY 250513Z AUTO 07006KT 10SM OVC013 17/16 A3040 RMK AO2 T01720156
KVAY 250454Z AUTO 10SM BKN015 OVC022 17/16 A3040 RMK AO2 SLP294 T01720156 402000161
KVAY 250354Z AUTO 07008KT 10SM FEW016 BKN029 OVC034 17/15 A3042 RMK AO2 SLP300 T01720150
KVAY 250254Z AUTO 07007KT 10SM OVC039 17/14 A3043 RMK AO2 RAB11E31 SLP304 P0000 60000 T01720144 50005
KVAY 250154Z AUTO 08007KT 10SM OVC030 17/14 A3043 RMK AO2 RAB12E31 SLP304 P0000 T01720139
KVAY 250054Z AUTO 09005KT 10SM OVC041 18/14 A3043 RMK AO2 SLP303 T01780139
KVAY 242354Z AUTO 08007KT 060V130 10SM BKN030 OVC038 18/14 A3041 RMK AO2 SLP298 T01780144 10200 20178 53002
KVAY 242254Z AUTO 08008KT 10SM BKN046 18/14 A3041 RMK AO2 SLP297 T01780139
KVAY 242154Z AUTO 07008G15KT 040V120 10SM OVC047 18/14 A3040 RMK AO2 SLP294 T01830139
KVAY 242054Z AUTO 08010G15KT 10SM OVC047 19/13 A3041 RMK AO2 SLP296 T01890133 55001
KVAY 241954Z AUTO 07007KT 10SM OVC046 19/14 A3040 RMK AO2 SLP295 T01890139
KVAY 241854Z AUTO 09007G15KT 10SM SCT029 OVC055 19/14 A3041 RMK AO2 SLP298 T01940139
KVAY 241754Z AUTO 08011G18KT 10SM FEW035 20/14 A3041 RMK AO2 RAE1656 SLP297 P0000 60000 T02000139 10200 20167 58001